Time;durP1;ratioP1;P1;durP2;ratioP2;P2;SDS_P1;SDS_P2;PMS_P1;PMS_P2;Temp;Humidity;BMP_temperature;BMP_pressure;BME280_temperature;BME280_humidity;BME280_pressure;Samples;Min_cycle;Max_cycle;Signal;HPM_P1;HPM_P2
2023/01/04 00:02:15;;;;;;;18.77;13.03;;;6.30;99.90;;;;;;5084955;28;20312;-49
2023/01/04 00:04:42;;;;;;;23.37;14.20;;;6.30;99.90;;;;;;5085667;28;20209;-51
2023/01/04 00:07:09;;;;;;;19.40;14.33;;;6.30;99.90;;;;;;5084386;28;20616;-51
2023/01/04 00:09:36;;;;;;;20.03;15.03;;;6.30;99.90;;;;;;5072822;28;20674;-49
2023/01/04 00:12:03;;;;;;;22.93;15.47;;;6.20;99.90;;;;;;5071337;28;20223;-49
2023/01/04 00:14:30;;;;;;;21.63;15.50;;;6.20;99.90;;;;;;5072833;28;20256;-51
2023/01/04 00:17:02;;;;;;;22.10;16.67;;;6.10;99.90;;;;;;5053442;28;20229;-49
2023/01/04 00:19:29;;;;;;;27.87;18.00;;;6.10;99.90;;;;;;5053496;28;20250;-51
2023/01/04 00:21:56;;;;;;;27.03;17.67;;;6.10;99.90;;;;;;5066909;28;20241;-49
2023/01/04 00:24:23;;;;;;;29.57;18.40;;;6.10;99.90;;;;;;5071382;28;20206;-49
2023/01/04 00:26:50;;;;;;;29.10;18.87;;;6.10;99.90;;;;;;5072268;28;20261;-50
2023/01/04 00:29:17;;;;;;;29.33;19.03;;;6.10;99.90;;;;;;5053302;28;20207;-50
2023/01/04 00:31:44;;;;;;;30.13;20.97;;;6.10;99.90;;;;;;5053695;28;20227;-49
2023/01/04 00:34:15;;;;;;;29.70;18.53;;;6.10;99.90;;;;;;5072003;28;20193;-49
2023/01/04 00:36:42;;;;;;;28.33;19.43;;;6.20;99.90;;;;;;5072164;28;20204;-49
2023/01/04 00:39:14;;;;;;;31.27;19.30;;;6.10;99.90;;;;;;5071347;28;20200;-49
2023/01/04 00:41:42;;;;;;;27.43;17.90;;;6.20;99.90;;;;;;5071200;28;20579;-49
2023/01/04 00:44:09;;;;;;;32.23;18.97;;;6.10;99.90;;;;;;5065892;28;20195;-50
2023/01/04 00:46:37;;;;;;;24.17;17.43;;;6.10;99.90;;;;;;5072614;28;20258;-50
2023/01/04 00:49:05;;;;;;;28.43;17.60;;;6.10;99.90;;;;;;5063407;28;20724;-51
2023/01/04 00:51:35;;;;;;;34.47;18.53;;;6.10;99.90;;;;;;5072365;28;20224;-50
2023/01/04 00:54:04;;;;;;;33.57;20.40;;;6.10;99.90;;;;;;5073102;28;20275;-51
2023/01/04 00:56:32;;;;;;;31.63;18.67;;;6.10;99.90;;;;;;5072328;28;20210;-50
2023/01/04 00:59:00;;;;;;;29.37;17.13;;;6.10;99.90;;;;;;5072467;28;20204;-49
2023/01/04 01:01:28;;;;;;;24.97;17.53;;;6.10;99.90;;;;;;5061302;28;20743;-50
2023/01/04 01:03:56;;;;;;;29.70;17.07;;;6.10;99.90;;;;;;5071849;28;20571;-51
2023/01/04 01:06:24;;;;;;;26.57;16.90;;;6.10;99.90;;;;;;5072150;28;20206;-51
2023/01/04 01:08:53;;;;;;;25.97;15.70;;;6.10;99.90;;;;;;5072295;28;20203;-49
2023/01/04 01:11:21;;;;;;;19.87;13.40;;;6.10;99.90;;;;;;5062932;28;20204;-51
2023/01/04 01:13:49;;;;;;;22.70;14.20;;;6.10;99.90;;;;;;5071640;28;20793;-49
2023/01/04 01:16:18;;;;;;;22.90;14.93;;;6.10;99.90;;;;;;5072166;28;20629;-51
2023/01/04 01:18:45;;;;;;;23.80;15.00;;;6.10;99.90;;;;;;5068573;28;20206;-49
2023/01/04 01:21:14;;;;;;;20.93;14.00;;;6.10;99.90;;;;;;5066094;28;20250;-49
2023/01/04 01:23:42;;;;;;;21.37;13.97;;;6.10;99.90;;;;;;5070475;28;20226;-49
2023/01/04 01:26:14;;;;;;;22.37;12.30;;;6.10;99.90;;;;;;5071796;28;20624;-49
2023/01/04 01:28:41;;;;;;;21.33;12.37;;;6.00;99.90;;;;;;5071903;28;20207;-51
2023/01/04 01:31:09;;;;;;;31.80;12.07;;;5.90;99.90;;;;;;5071908;28;20259;-49
2023/01/04 01:33:36;;;;;;;19.50;12.27;;;5.90;99.90;;;;;;5071360;28;20220;-50
2023/01/04 01:36:04;;;;;;;18.07;12.27;;;5.80;99.90;;;;;;5065708;28;20202;-49
2023/01/04 01:38:31;;;;;;;37.23;12.73;;;5.80;99.90;;;;;;5068392;28;20627;-49
2023/01/04 01:40:58;;;;;;;18.77;12.87;;;5.80;99.90;;;;;;5071780;28;20260;-49
2023/01/04 01:43:48;;;;;;;25.73;11.57;;;5.80;99.90;;;;;;5071416;28;20780;-50
2023/01/04 01:46:18;;;;;;;14.20;10.27;;;5.80;99.90;;;;;;5071681;28;20210;-50
2023/01/04 01:48:46;;;;;;;20.07;12.50;;;5.80;99.90;;;;;;5061491;28;20604;-51
2023/01/04 01:51:16;;;;;;;17.13;12.10;;;5.70;99.90;;;;;;5071649;28;20252;-51
2023/01/04 01:53:47;;;;;;;18.80;12.53;;;5.80;99.90;;;;;;5071061;28;20321;-50
2023/01/04 01:56:17;;;;;;;19.10;13.93;;;5.80;99.90;;;;;;5071741;28;20206;-51
2023/01/04 01:58:50;;;;;;;18.50;12.50;;;5.80;99.90;;;;;;5071446;28;20203;-49
2023/01/04 02:01:17;;;;;;;18.37;11.97;;;5.80;99.90;;;;;;5070930;28;20690;-50
2023/01/04 02:03:45;;;;;;;17.27;11.80;;;5.80;99.90;;;;;;5071093;28;20219;-49
2023/01/04 02:06:18;;;;;;;20.03;12.17;;;5.70;99.90;;;;;;5071651;28;20206;-49
2023/01/04 02:08:46;;;;;;;18.40;12.40;;;5.70;99.90;;;;;;5071657;28;20256;-50
2023/01/04 02:11:13;;;;;;;17.10;12.70;;;5.60;99.90;;;;;;5069579;28;20253;-50
2023/01/04 02:16:40;;;;;;;17.57;12.57;;;5.50;99.90;;;;;;5071492;28;20217;-51
2023/01/04 02:19:27;;;;;;;18.93;13.10;;;5.50;99.90;;;;;;5071367;28;20548;-49
2023/01/04 02:22:17;;;;;;;18.47;13.30;;;5.60;99.90;;;;;;5071233;28;20196;-50
2023/01/04 02:25:00;;;;;;;19.37;13.97;;;5.60;99.90;;;;;;5070514;28;20229;-50
2023/01/04 02:27:49;;;;;;;20.43;13.17;;;5.50;99.90;;;;;;5071369;28;20261;-50
2023/01/04 02:30:54;;;;;;;18.83;14.30;;;5.50;99.90;;;;;;5071750;28;20207;-49
2023/01/04 02:33:38;;;;;;;18.53;12.03;;;5.50;99.90;;;;;;5058241;28;20227;-50
2023/01/04 02:36:15;;;;;;;17.33;11.63;;;5.50;99.90;;;;;;5059965;28;20204;-51
2023/01/04 02:38:55;;;;;;;15.10;11.20;;;5.50;99.90;;;;;;5069326;28;20265;-51
2023/01/04 02:41:29;;;;;;;18.73;12.60;;;5.50;99.90;;;;;;5071615;28;20200;-49
2023/01/04 02:46:48;;;;;;;19.87;13.83;;;5.50;99.90;;;;;;5071607;28;20201;-49
2023/01/04 02:52:02;;;;;;;17.07;12.87;;;5.60;99.90;;;;;;5067042;28;20231;-50
2023/01/04 02:54:32;;;;;;;18.83;13.23;;;5.60;99.90;;;;;;5074515;28;20678;-49
2023/01/04 02:57:24;;;;;;;23.73;15.03;;;5.60;99.90;;;;;;5075011;28;20272;-50
2023/01/04 03:00:10;;;;;;;26.47;16.63;;;5.70;99.90;;;;;;5067003;28;20267;-49
2023/01/04 03:08:37;;;;;;;30.37;18.77;;;5.80;99.90;;;;;;5074776;28;20726;-50
2023/01/04 03:12:30;;;;;;;29.80;19.53;;;5.80;99.90;;;;;;5074516;28;20742;-50
2023/01/04 03:13:58;;;;;;;29.73;18.17;;;5.90;99.90;;;;;;5072908;28;20710;-51
2023/01/04 03:16:26;;;;;;;29.37;18.90;;;5.90;99.90;;;;;;5074478;28;20196;-51
2023/01/04 03:19:02;;;;;;;30.67;18.00;;;5.90;99.90;;;;;;5074126;28;20302;-50
2023/01/04 03:21:33;;;;;;;28.93;17.97;;;5.90;99.90;;;;;;5074241;28;20229;-49
2023/01/04 03:35:41;;;;;;;39.60;17.17;;;5.80;99.90;;;;;;5073665;28;20203;-49
2023/01/04 03:49:38;;;;;;;40.90;17.67;;;5.70;99.90;;;;;;5073631;28;20230;-51
2023/01/04 03:52:07;;;;;;;34.67;17.13;;;5.70;99.90;;;;;;5073165;28;20280;-49
2023/01/04 03:54:38;;;;;;;30.10;18.23;;;5.70;99.90;;;;;;5073336;28;20278;-49
2023/01/04 03:57:09;;;;;;;30.40;17.87;;;5.70;99.90;;;;;;5073722;28;20249;-49
2023/01/04 03:59:48;;;;;;;27.70;15.73;;;5.70;99.90;;;;;;5073422;28;20207;-49
2023/01/04 04:02:18;;;;;;;31.20;17.43;;;5.70;99.90;;;;;;5057762;28;20267;-50
2023/01/04 04:10:17;;;;;;;25.87;15.97;;;5.60;99.90;;;;;;5073197;28;20588;-49
2023/01/04 04:12:44;;;;;;;34.53;16.87;;;5.60;99.90;;;;;;5092470;28;20220;-50
2023/01/04 04:15:12;;;;;;;36.07;17.63;;;5.70;99.90;;;;;;5093106;28;20606;-49
2023/01/04 04:17:39;;;;;;;32.63;16.80;;;5.60;99.90;;;;;;5093611;28;20208;-50
2023/01/04 04:20:07;;;;;;;33.60;18.43;;;5.60;99.90;;;;;;5093335;28;20206;-49
2023/01/04 04:22:34;;;;;;;33.50;18.57;;;5.60;99.90;;;;;;5093357;28;20637;-51
2023/01/04 04:25:01;;;;;;;36.53;17.10;;;5.60;99.90;;;;;;5091400;28;20255;-49
2023/01/04 04:27:29;;;;;;;29.43;17.63;;;5.60;99.90;;;;;;5073005;28;20215;-49
2023/01/04 04:29:56;;;;;;;35.37;17.30;;;5.60;99.90;;;;;;5072791;28;20208;-50
2023/01/04 04:32:23;;;;;;;37.83;17.77;;;5.60;99.90;;;;;;5072680;28;20224;-49
2023/01/04 04:34:50;;;;;;;28.13;17.37;;;5.60;99.90;;;;;;5072719;28;20270;-49
2023/01/04 04:37:17;;;;;;;42.57;18.33;;;5.60;99.90;;;;;;5072366;28;20645;-50
2023/01/04 04:39:44;;;;;;;31.47;18.50;;;5.60;99.90;;;;;;5072765;28;20270;-50
2023/01/04 04:42:10;;;;;;;29.57;17.77;;;5.70;99.90;;;;;;5072310;28;20677;-50
2023/01/04 04:44:38;;;;;;;27.17;16.33;;;5.70;99.90;;;;;;5072549;28;20202;-50
2023/01/04 04:47:05;;;;;;;27.97;15.87;;;5.70;99.90;;;;;;5072694;28;20288;-49
2023/01/04 04:49:32;;;;;;;34.00;17.03;;;5.70;99.90;;;;;;5072606;28;20210;-49
2023/01/04 04:52:03;;;;;;;33.07;17.63;;;5.60;99.90;;;;;;5072402;28;20749;-50
2023/01/04 04:54:30;;;;;;;28.33;17.33;;;5.60;99.90;;;;;;5072245;28;20224;-49
2023/01/04 04:56:57;;;;;;;28.47;14.87;;;5.60;99.90;;;;;;5072223;28;20209;-49
2023/01/04 04:59:24;;;;;;;27.17;15.73;;;5.60;99.90;;;;;;5072183;28;20256;-49
2023/01/04 05:01:52;;;;;;;31.70;17.33;;;5.60;99.90;;;;;;5072063;28;20208;-51
2023/01/04 05:04:19;;;;;;;28.60;17.53;;;5.60;99.90;;;;;;5072140;28;20252;-50
2023/01/04 05:06:48;;;;;;;25.17;15.37;;;5.60;99.90;;;;;;5072236;28;20213;-51
2023/01/04 05:09:15;;;;;;;30.30;15.17;;;5.60;99.90;;;;;;5072130;28;20202;-50
2023/01/04 05:14:28;;;;;;;28.17;14.77;;;5.60;99.90;;;;;;5071888;28;20285;-50
2023/01/04 05:16:56;;;;;;;34.90;16.27;;;5.60;99.90;;;;;;5071692;28;20206;-50
2023/01/04 05:19:23;;;;;;;26.13;14.53;;;5.60;99.90;;;;;;5071944;28;20221;-49
2023/01/04 05:21:50;;;;;;;26.70;14.83;;;5.60;99.90;;;;;;5071764;28;20685;-49
2023/01/04 05:24:17;;;;;;;27.47;15.73;;;5.60;99.90;;;;;;5071727;28;20668;-50
2023/01/04 05:26:44;;;;;;;28.00;15.83;;;5.60;99.90;;;;;;5071944;28;20699;-50
2023/01/04 05:30:49;;;;;;;20.77;12.97;;;5.50;99.90;;;;;;5084920;22;20233;-50
2023/01/04 05:31:58;;;;;;;28.20;14.63;;;5.50;99.90;;;;;;5003883;28;20206;-50
2023/01/04 05:34:25;;;;;;;27.77;15.10;;;5.50;99.90;;;;;;5012920;28;20702;-50
2023/01/04 05:36:52;;;;;;;27.70;15.20;;;5.50;99.90;;;;;;5012095;28;20616;-49
2023/01/04 05:39:19;;;;;;;26.77;14.27;;;5.50;99.90;;;;;;5011944;28;20717;-50
2023/01/04 05:44:30;;;;;;;25.60;14.90;;;5.50;99.90;;;;;;5011960;28;20199;-50
2023/01/04 05:47:02;;;;;;;22.33;13.83;;;5.60;99.90;;;;;;5012168;28;20290;-49
2023/01/04 05:49:29;;;;;;;28.20;14.13;;;5.50;99.90;;;;;;5011998;28;20234;-49
2023/01/04 05:51:56;;;;;;;27.73;14.37;;;5.50;99.90;;;;;;5027500;28;20209;-50
2023/01/04 05:54:23;;;;;;;36.77;16.70;;;5.50;99.90;;;;;;5031402;28;20236;-49
2023/01/04 05:56:50;;;;;;;28.07;14.87;;;5.50;99.90;;;;;;5031714;28;20206;-50
2023/01/04 05:59:17;;;;;;;29.77;14.73;;;5.50;99.90;;;;;;5031558;28;20224;-49
2023/01/04 06:01:44;;;;;;;27.00;15.73;;;5.40;99.90;;;;;;5031743;28;20208;-50
2023/01/04 06:04:12;;;;;;;28.97;14.40;;;5.40;99.90;;;;;;5031339;28;20637;-49
2023/01/04 06:06:39;;;;;;;27.07;14.83;;;5.40;99.90;;;;;;5031809;28;20279;-50
2023/01/04 06:09:06;;;;;;;25.27;15.33;;;5.50;99.90;;;;;;5029965;28;20232;-50
2023/01/04 06:11:33;;;;;;;23.23;14.50;;;5.50;99.90;;;;;;5031445;28;20261;-49
2023/01/04 06:14:00;;;;;;;25.67;16.57;;;5.50;99.90;;;;;;5031231;28;20778;-50
2023/01/04 06:16:27;;;;;;;32.13;15.50;;;5.40;99.90;;;;;;5031348;28;20678;-50
2023/01/04 06:18:54;;;;;;;25.40;14.13;;;5.40;99.90;;;;;;5031401;28;20231;-50
2023/01/04 06:21:24;;;;;;;19.53;12.23;;;5.40;99.90;;;;;;5031798;28;20208;-50
2023/01/04 06:23:51;;;;;;;18.10;11.97;;;5.40;99.90;;;;;;5032447;28;20246;-50
2023/01/04 06:26:18;;;;;;;19.97;12.17;;;5.40;99.90;;;;;;5016364;28;20255;-50
2023/01/04 06:28:45;;;;;;;20.23;12.50;;;5.40;99.90;;;;;;5015522;28;20271;-50
2023/01/04 06:31:13;;;;;;;23.80;12.40;;;5.30;99.90;;;;;;5015534;28;20205;-50
2023/01/04 06:33:40;;;;;;;26.03;13.47;;;5.30;99.90;;;;;;5015239;28;20288;-50
2023/01/04 06:36:08;;;;;;;23.60;13.50;;;5.20;99.90;;;;;;5015486;28;20211;-50
2023/01/04 06:38:36;;;;;;;20.33;13.10;;;5.30;99.90;;;;;;5015450;28;20674;-50
2023/01/04 06:41:03;;;;;;;21.47;12.90;;;5.20;99.90;;;;;;5015452;28;20221;-50
2023/01/04 06:43:30;;;;;;;22.73;13.43;;;5.30;99.90;;;;;;5014137;28;20204;-50
2023/01/04 06:45:59;;;;;;;22.97;13.90;;;5.30;99.90;;;;;;5006960;28;20207;-49
2023/01/04 06:48:26;;;;;;;20.70;13.10;;;5.30;99.90;;;;;;5014885;28;20211;-50
2023/01/04 06:50:53;;;;;;;19.37;12.40;;;5.30;99.90;;;;;;5015225;28;20221;-50
2023/01/04 06:53:20;;;;;;;20.67;13.57;;;5.20;99.90;;;;;;5013699;28;20231;-50
2023/01/04 06:55:48;;;;;;;21.03;13.00;;;5.20;99.90;;;;;;5015237;28;20204;-50
2023/01/04 06:58:15;;;;;;;23.07;12.97;;;5.20;99.90;;;;;;5009938;28;20626;-50
2023/01/04 07:00:42;;;;;;;20.53;13.13;;;5.30;99.90;;;;;;5014707;28;20225;-50
2023/01/04 07:03:09;;;;;;;22.30;12.73;;;5.40;99.90;;;;;;5014578;28;20205;-50
2023/01/04 07:05:36;;;;;;;19.03;11.63;;;5.40;99.90;;;;;;5014180;28;20625;-50
2023/01/04 07:08:04;;;;;;;16.27;10.63;;;5.40;99.90;;;;;;5014532;28;20267;-50
2023/01/04 07:10:31;;;;;;;17.13;10.33;;;5.40;99.90;;;;;;5012882;28;20220;-50
2023/01/04 07:13:00;;;;;;;16.83;11.43;;;5.30;99.90;;;;;;5006419;28;20257;-50
2023/01/04 07:15:27;;;;;;;16.47;11.47;;;5.30;99.90;;;;;;5014399;28;20296;-50
2023/01/04 07:17:54;;;;;;;15.03;11.03;;;5.40;99.90;;;;;;5014793;28;20202;-50
2023/01/04 07:20:21;;;;;;;15.30;11.67;;;5.30;99.90;;;;;;5014499;28;20222;-50
2023/01/04 07:22:48;;;;;;;15.10;11.07;;;5.30;99.90;;;;;;5014618;28;20204;-50
2023/01/04 07:25:15;;;;;;;11.30;9.53;;;5.20;99.90;;;;;;5013362;28;20201;-50
2023/01/04 07:27:42;;;;;;;12.80;9.43;;;5.30;99.90;;;;;;5013573;28;20254;-50
2023/01/04 07:30:12;;;;;;;9.63;8.60;;;5.30;99.90;;;;;;5013334;28;20230;-50
2023/01/04 07:32:40;;;;;;;12.47;9.37;;;5.40;99.90;;;;;;5012781;28;20213;-50
2023/01/04 07:35:08;;;;;;;10.63;8.13;;;5.40;99.90;;;;;;5012921;28;20224;-50
2023/01/04 07:37:35;;;;;;;10.80;8.63;;;5.40;99.90;;;;;;5013695;28;20208;-50
2023/01/04 07:40:03;;;;;;;11.67;8.97;;;5.50;99.90;;;;;;5011749;28;20223;-49
2023/01/04 07:42:31;;;;;;;12.37;8.93;;;5.50;99.90;;;;;;5009791;28;20280;-50
2023/01/04 07:44:58;;;;;;;11.53;8.87;;;5.50;99.90;;;;;;5008796;28;20286;-50
2023/01/04 07:47:27;;;;;;;13.03;8.63;;;5.50;99.90;;;;;;5011976;28;20566;-50
2023/01/04 07:49:55;;;;;;;9.03;7.53;;;5.60;99.90;;;;;;5010469;28;20504;-50
2023/01/04 07:52:24;;;;;;;8.33;6.47;;;5.50;99.90;;;;;;5009045;28;20228;-50
2023/01/04 07:54:51;;;;;;;10.10;8.23;;;5.50;99.90;;;;;;5006539;28;20282;-48
2023/01/04 07:57:18;;;;;;;8.67;7.77;;;5.50;99.90;;;;;;5008476;28;20197;-49
2023/01/04 07:59:45;;;;;;;12.57;9.37;;;5.50;99.90;;;;;;5011361;28;20234;-50
2023/01/04 08:02:13;;;;;;;10.73;8.33;;;5.60;99.90;;;;;;5011564;28;20206;-50
2023/01/04 08:04:41;;;;;;;10.43;8.60;;;5.50;99.90;;;;;;5010577;28;20202;-50
2023/01/04 08:07:08;;;;;;;10.03;7.87;;;5.60;99.90;;;;;;5009040;28;20255;-50
2023/01/04 08:09:35;;;;;;;8.37;6.60;;;5.60;99.90;;;;;;5013174;28;20216;-49
2023/01/04 08:12:05;;;;;;;8.03;7.23;;;5.60;99.90;;;;;;5013716;28;20292;-50
2023/01/04 08:14:32;;;;;;;12.17;7.30;;;5.50;99.90;;;;;;5008066;28;20579;-51
2023/01/04 08:17:03;;;;;;;10.10;7.77;;;5.50;99.90;;;;;;5009778;28;20662;-51
2023/01/04 08:19:30;;;;;;;8.30;6.87;;;5.60;99.90;;;;;;5013320;28;20226;-50
2023/01/04 08:21:58;;;;;;;8.03;7.03;;;5.80;99.90;;;;;;5006678;28;20258;-50
2023/01/04 08:24:26;;;;;;;10.97;7.40;;;6.00;99.90;;;;;;5021010;28;20798;-50
2023/01/04 08:26:53;;;;;;;7.77;6.50;;;6.10;99.90;;;;;;5032042;28;20212;-51
2023/01/04 08:29:21;;;;;;;11.17;7.47;;;6.20;99.90;;;;;;5007508;28;20576;-51
2023/01/04 08:31:48;;;;;;;8.83;7.43;;;6.20;99.90;;;;;;5012976;28;20202;-51
2023/01/04 08:34:15;;;;;;;9.23;7.70;;;6.20;99.90;;;;;;5013141;28;20268;-50
2023/01/04 08:36:50;;;;;;;9.53;7.63;;;6.20;99.90;;;;;;5012925;28;20201;-50
2023/01/04 08:39:18;;;;;;;9.63;7.10;;;6.00;99.90;;;;;;5013052;28;20735;-51
2023/01/04 08:41:52;;;;;;;9.23;8.07;;;5.90;99.90;;;;;;5014670;28;20288;-50
2023/01/04 08:44:21;;;;;;;9.93;7.87;;;5.90;99.90;;;;;;5007217;28;20227;-50
2023/01/04 08:46:49;;;;;;;10.50;7.20;;;6.00;99.90;;;;;;5010794;28;20260;-50
2023/01/04 08:49:16;;;;;;;10.33;8.10;;;6.00;99.90;;;;;;5006328;28;20228;-50
2023/01/04 08:51:44;;;;;;;7.73;6.43;;;6.00;99.90;;;;;;5006357;28;20204;-51
2023/01/04 08:54:12;;;;;;;6.97;6.17;;;6.00;99.90;;;;;;5010797;28;20192;-50
2023/01/04 08:56:40;;;;;;;7.17;6.47;;;6.00;99.90;;;;;;5009579;28;20764;-50
2023/01/04 08:59:09;;;;;;;8.00;5.97;;;6.10;99.90;;;;;;5008934;28;20221;-50
2023/01/04 09:01:37;;;;;;;8.80;5.50;;;6.00;99.90;;;;;;5007964;28;20622;-50
2023/01/04 09:04:05;;;;;;;5.57;5.07;;;6.10;99.90;;;;;;5009666;28;20222;-50
2023/01/04 09:06:32;;;;;;;6.03;5.47;;;6.20;99.90;;;;;;5007469;28;20265;-50
2023/01/04 09:08:59;;;;;;;6.80;6.20;;;6.40;99.90;;;;;;5007689;28;20203;-51
2023/01/04 09:11:26;;;;;;;7.03;4.90;;;6.50;99.90;;;;;;5008131;28;20389;-50
2023/01/04 09:13:59;;;;;;;6.10;5.50;;;6.50;99.90;;;;;;5006392;28;20201;-50
2023/01/04 09:16:26;;;;;;;8.03;7.23;;;6.60;99.90;;;;;;5007014;28;20204;-50
2023/01/04 09:18:54;;;;;;;9.40;7.37;;;6.50;99.90;;;;;;5009055;28;20272;-51
2023/01/04 09:21:22;;;;;;;7.23;6.30;;;6.50;99.90;;;;;;5007552;28;20247;-51
2023/01/04 09:23:49;;;;;;;11.60;8.63;;;6.50;99.90;;;;;;5008675;28;20578;-50
2023/01/04 09:26:20;;;;;;;10.97;7.87;;;6.40;99.90;;;;;;5006475;28;20201;-51
2023/01/04 09:28:47;;;;;;;9.77;8.00;;;6.50;99.90;;;;;;5004308;28;20202;-51
2023/01/04 09:31:17;;;;;;;8.00;7.20;;;6.60;99.90;;;;;;5006582;28;20713;-50
2023/01/04 09:33:45;;;;;;;8.40;6.60;;;6.80;99.90;;;;;;5006258;28;20232;-51
2023/01/04 09:36:14;;;;;;;6.97;6.33;;;6.80;99.90;;;;;;5008006;28;20200;-51
2023/01/04 09:38:42;;;;;;;8.17;6.40;;;6.90;99.90;;;;;;5006730;28;20264;-50
2023/01/04 09:41:18;;;;;;;7.17;6.23;;;7.10;99.90;;;;;;5004269;28;20251;-50
2023/01/04 09:43:48;;;;;;;7.43;6.07;;;7.10;99.90;;;;;;5005369;28;20206;-51
2023/01/04 09:46:24;;;;;;;6.60;5.37;;;7.20;99.90;;;;;;5007975;28;20215;-50
2023/01/04 09:48:53;;;;;;;6.20;5.60;;;7.20;99.90;;;;;;5011029;28;20294;-50
2023/01/04 09:51:24;;;;;;;6.33;5.57;;;7.30;99.90;;;;;;5011980;28;20196;-50
2023/01/04 09:53:57;;;;;;;5.20;4.70;;;7.20;99.90;;;;;;5008196;28;20275;-50
2023/01/04 09:56:29;;;;;;;6.43;5.63;;;7.30;99.90;;;;;;5005482;28;20451;-51
2023/01/04 09:58:57;;;;;;;5.77;5.17;;;7.40;99.90;;;;;;5004718;28;20204;-50
2023/01/04 10:01:30;;;;;;;10.07;6.23;;;7.40;99.90;;;;;;5007213;28;20744;-51
2023/01/04 10:04:06;;;;;;;5.40;4.63;;;7.40;99.90;;;;;;5010187;28;20220;-51
2023/01/04 10:06:34;;;;;;;7.40;4.97;;;7.50;99.90;;;;;;5007163;28;20251;-51
2023/01/04 10:09:04;;;;;;;4.47;3.90;;;7.40;99.90;;;;;;5005447;28;20216;-51
2023/01/04 10:11:47;;;;;;;5.77;5.27;;;7.40;99.90;;;;;;5006479;28;20651;-50
2023/01/04 10:14:35;;;;;;;6.63;5.40;;;7.40;99.90;;;;;;5005625;28;20201;-51
2023/01/04 10:17:15;;;;;;;6.53;6.00;;;7.40;99.90;;;;;;5004003;28;20203;-51
2023/01/04 10:19:59;;;;;;;5.40;4.90;;;7.40;99.90;;;;;;5006433;28;20645;-50
2023/01/04 10:22:35;;;;;;;5.90;5.37;;;7.40;99.90;;;;;;5005921;28;20209;-50
2023/01/04 10:25:20;;;;;;;5.80;5.30;;;7.40;99.90;;;;;;5005360;28;20216;-51
2023/01/04 10:27:55;;;;;;;7.87;5.33;;;7.30;99.90;;;;;;5006081;28;20556;-51
2023/01/04 10:30:31;;;;;;;5.53;5.03;;;7.30;99.90;;;;;;5006304;28;20727;-50
2023/01/04 10:33:10;;;;;;;6.33;5.73;;;7.40;99.90;;;;;;5006289;28;20691;-51
2023/01/04 10:35:39;;;;;;;6.43;5.50;;;7.40;99.90;;;;;;5006683;28;20256;-50
2023/01/04 10:38:15;;;;;;;7.27;5.77;;;7.30;99.90;;;;;;5006008;28;20205;-50
2023/01/04 10:40:45;;;;;;;6.87;6.00;;;7.40;99.90;;;;;;5005581;28;20282;-51
2023/01/04 10:43:19;;;;;;;6.87;6.17;;;7.40;99.90;;;;;;5005925;28;20201;-50
2023/01/04 10:45:51;;;;;;;5.37;4.97;;;7.40;99.90;;;;;;5005302;28;20218;-50
2023/01/04 10:48:24;;;;;;;4.60;4.20;;;7.50;99.90;;;;;;5004602;28;20741;-50
2023/01/04 10:50:55;;;;;;;3.70;3.40;;;7.60;99.90;;;;;;5005633;28;20788;-51
2023/01/04 10:53:26;;;;;;;5.63;3.90;;;7.60;99.90;;;;;;5005641;28;20197;-51
2023/01/04 10:55:57;;;;;;;5.07;4.67;;;7.70;99.90;;;;;;5005386;28;20208;-49
2023/01/04 10:58:29;;;;;;;6.17;4.80;;;7.80;99.90;;;;;;5003487;28;20721;-51
2023/01/04 11:01:01;;;;;;;6.40;5.17;;;7.80;99.90;;;;;;5004930;28;20242;-51
2023/01/04 11:03:38;;;;;;;4.03;3.67;;;7.80;99.90;;;;;;5006034;28;20209;-51
2023/01/04 11:06:13;;;;;;;4.20;3.87;;;7.70;99.90;;;;;;5004651;28;20236;-51
2023/01/04 11:08:47;;;;;;;4.00;3.33;;;7.70;99.90;;;;;;5004244;28;20563;-49
2023/01/04 11:11:20;;;;;;;5.10;4.33;;;7.70;99.90;;;;;;5007951;28;20200;-50
2023/01/04 11:13:48;;;;;;;4.83;4.37;;;7.80;99.90;;;;;;5010029;28;20737;-51
2023/01/04 11:16:15;;;;;;;3.97;3.73;;;7.80;99.90;;;;;;5008245;28;20206;-51
2023/01/04 11:18:45;;;;;;;4.80;3.47;;;7.80;99.90;;;;;;5008189;28;20201;-51
2023/01/04 11:21:14;;;;;;;2.60;2.40;;;7.90;99.90;;;;;;5009384;28;20199;-51
2023/01/04 11:23:41;;;;;;;3.10;2.30;;;7.90;99.90;;;;;;5009290;28;20903;-50
2023/01/04 11:26:13;;;;;;;2.93;2.27;;;8.00;99.90;;;;;;5008716;28;20229;-50
2023/01/04 11:28:47;;;;;;;2.60;2.40;;;8.00;99.90;;;;;;5008744;28;20236;-50
2023/01/04 11:31:22;;;;;;;11.63;2.17;;;8.00;99.90;;;;;;5098633;22;20232;-50
2023/01/04 11:33:56;;;;;;;4.40;3.93;;;8.00;99.90;;;;;;5091829;28;20658;-51
2023/01/04 11:36:34;;;;;;;2.33;1.67;;;8.20;99.90;;;;;;5083662;28;20263;-52
2023/01/04 11:39:02;;;;;;;1.97;1.87;;;8.20;99.90;;;;;;5086251;28;20604;-51
2023/01/04 11:41:29;;;;;;;2.37;2.23;;;8.20;99.90;;;;;;5070987;28;20280;-51
2023/01/04 11:43:58;;;;;;;1.80;1.70;;;8.20;99.90;;;;;;5067759;28;20251;-52
2023/01/04 11:46:26;;;;;;;2.77;2.57;;;8.20;99.90;;;;;;5065149;28;20702;-51
2023/01/04 11:48:54;;;;;;;3.73;2.73;;;8.20;99.90;;;;;;5066879;28;20253;-51
2023/01/04 11:51:38;;;;;;;2.10;2.00;;;8.20;99.90;;;;;;5065706;28;20219;-52
2023/01/04 11:54:17;;;;;;;1.90;1.80;;;8.20;99.90;;;;;;5069063;28;20854;-51
2023/01/04 11:57:02;;;;;;;2.63;2.43;;;8.30;99.90;;;;;;5066775;28;20209;-51
2023/01/04 11:59:29;;;;;;;3.33;1.97;;;8.40;99.90;;;;;;5064759;28;20198;-52
2023/01/04 12:02:20;;;;;;;1.77;1.67;;;8.40;99.90;;;;;;5067384;28;20525;-51
2023/01/04 12:04:50;;;;;;;2.43;1.60;;;8.40;99.90;;;;;;5065130;28;20244;-52
2023/01/04 12:07:28;;;;;;;1.83;1.33;;;8.40;99.90;;;;;;5071613;28;20197;-51
2023/01/04 12:09:56;;;;;;;1.40;1.30;;;8.50;99.90;;;;;;5074494;28;20227;-52
2023/01/04 12:12:28;;;;;;;1.77;1.67;;;8.50;99.90;;;;;;5073171;28;20209;-51
2023/01/04 12:14:56;;;;;;;2.73;1.77;;;8.60;99.90;;;;;;5065025;28;20203;-52
2023/01/04 12:17:28;;;;;;;1.70;1.60;;;8.60;99.90;;;;;;5067166;28;20207;-51
2023/01/04 12:19:57;;;;;;;1.10;1.10;;;8.70;99.90;;;;;;5066910;28;20581;-51
2023/01/04 12:22:38;;;;;;;1.33;1.30;;;8.80;99.90;;;;;;5065186;28;20209;-51
2023/01/04 12:25:08;;;;;;;1.30;1.20;;;8.90;99.90;;;;;;5066982;28;20221;-51
2023/01/04 12:27:36;;;;;;;1.87;1.77;;;8.90;99.90;;;;;;5067076;28;20202;-51
2023/01/04 12:30:06;;;;;;;0.97;0.97;;;8.80;99.90;;;;;;5063948;28;20235;-51
2023/01/04 12:32:46;;;;;;;0.87;0.87;;;8.80;99.90;;;;;;5068292;28;20687;-53
2023/01/04 12:36:05;;;;;;;1.37;1.27;;;8.70;99.90;;;;;;5066067;28;20202;-51
2023/01/04 12:39:27;;;;;;;1.13;1.10;;;8.70;99.90;;;;;;5062895;28;20287;-52
2023/01/04 12:42:20;;;;;;;1.17;1.00;;;8.70;99.90;;;;;;5000540;28;20241;-52
2023/01/04 12:45:21;;;;;;;1.10;1.00;;;8.70;99.90;;;;;;5065054;28;20199;-51
2023/01/04 12:51:19;;;;;;;1.10;1.00;;;8.70;99.90;;;;;;5067582;28;20316;-51
2023/01/04 12:53:58;;;;;;;1.20;1.10;;;8.70;99.90;;;;;;5064756;28;20203;-52
2023/01/04 12:56:58;;;;;;;2.03;1.17;;;8.70;99.90;;;;;;5062977;28;20252;-51
2023/01/04 12:59:34;;;;;;;1.43;1.20;;;8.70;99.90;;;;;;5064514;28;20199;-52
2023/01/04 13:02:29;;;;;;;1.00;1.00;;;8.70;99.90;;;;;;5065612;28;20703;-51
2023/01/04 13:04:57;;;;;;;0.70;0.70;;;8.70;99.90;;;;;;5028851;28;20700;-52
2023/01/04 13:07:29;;;;;;;1.27;1.17;;;8.70;99.90;;;;;;5066443;28;20644;-51
2023/01/04 13:09:59;;;;;;;1.33;1.23;;;8.80;99.90;;;;;;5065739;28;20215;-51
2023/01/04 13:12:53;;;;;;;2.57;1.83;;;8.80;99.90;;;;;;5065736;28;20258;-52
2023/01/04 13:15:32;;;;;;;1.67;1.57;;;8.80;99.90;;;;;;5062620;28;20257;-51
2023/01/04 13:17:59;;;;;;;5.37;3.43;;;8.80;99.90;;;;;;5066667;28;20203;-53
2023/01/04 13:20:29;;;;;;;2.90;2.10;;;8.80;99.90;;;;;;5064642;28;20705;-51
2023/01/04 13:22:58;;;;;;;2.53;1.77;;;8.90;99.90;;;;;;5072371;28;20264;-52
2023/01/04 13:25:26;;;;;;;1.53;0.83;;;8.80;99.90;;;;;;5062697;28;20766;-51
2023/01/04 13:27:59;;;;;;;1.57;1.47;;;8.80;99.90;;;;;;5070509;28;20550;-52
2023/01/04 13:30:33;;;;;;;1.13;1.00;;;8.80;99.90;;;;;;5064082;28;20231;-53
2023/01/04 13:33:09;;;;;;;1.33;0.97;;;8.90;99.90;;;;;;5066949;28;20300;-51
2023/01/04 13:35:36;;;;;;;1.77;0.93;;;8.80;99.90;;;;;;5076797;28;20199;-52
2023/01/04 13:38:04;;;;;;;1.43;1.33;;;8.80;99.90;;;;;;5065796;28;20344;-51
2023/01/04 13:40:34;;;;;;;1.93;1.20;;;8.80;99.90;;;;;;5066859;28;20222;-51
2023/01/04 13:43:29;;;;;;;1.23;1.13;;;8.80;99.90;;;;;;5065587;28;20211;-54
2023/01/04 13:46:13;;;;;;;1.57;0.93;;;8.80;99.90;;;;;;5060314;28;20266;-52
2023/01/04 13:48:43;;;;;;;1.10;0.70;;;8.80;99.90;;;;;;5064095;28;20740;-51
2023/01/04 13:51:15;;;;;;;1.53;1.10;;;8.80;99.90;;;;;;5066963;28;20653;-51
2023/01/04 13:53:51;;;;;;;1.50;1.37;;;8.90;99.90;;;;;;5060560;28;20294;-51
2023/01/04 13:56:21;;;;;;;2.50;2.30;;;8.90;99.90;;;;;;5062070;28;20288;-51
2023/01/04 13:58:48;;;;;;;2.47;2.27;;;8.90;99.90;;;;;;5063574;28;20258;-51